Time;durP1;ratioP1;P1;durP2;ratioP2;P2;SDS_P1;SDS_P2;PMS_P1;PMS_P2;Temp;Humidity;BMP_temperature;BMP_pressure;BME280_temperature;BME280_humidity;BME280_pressure;Samples;Min_cycle;Max_cycle;Signal;HPM_P1;HPM_P2
2021/10/27 00:02:19;;;;;;;32.43;5.93;;;16.60;99.90;;;;;;5093695;28;20914;-71
2021/10/27 00:04:44;;;;;;;29.80;4.90;;;16.60;99.90;;;;;;5071458;28;20499;-72
2021/10/27 00:07:11;;;;;;;30.33;5.28;;;16.60;99.90;;;;;;5088775;28;20441;-71
2021/10/27 00:09:37;;;;;;;26.92;5.00;;;16.60;99.90;;;;;;5086347;28;20471;-72
2021/10/27 00:12:03;;;;;;;23.23;4.37;;;16.60;99.90;;;;;;5087733;28;20779;-71
2021/10/27 00:14:29;;;;;;;25.85;4.35;;;16.60;99.90;;;;;;5068838;28;20426;-71
2021/10/27 00:16:54;;;;;;;27.77;4.90;;;16.60;99.90;;;;;;5088926;28;20409;-71
2021/10/27 00:19:20;;;;;;;27.60;4.72;;;16.60;99.90;;;;;;5070168;28;20524;-71
2021/10/27 00:21:46;;;;;;;24.55;4.30;;;16.60;99.90;;;;;;5090037;28;21028;-71
2021/10/27 00:24:12;;;;;;;25.88;4.88;;;16.60;99.90;;;;;;5089077;28;20406;-71
2021/10/27 00:26:37;;;;;;;25.87;4.27;;;16.70;99.90;;;;;;5069447;28;20865;-71
2021/10/27 00:29:03;;;;;;;25.37;4.90;;;16.70;99.90;;;;;;5070831;28;20473;-71
2021/10/27 00:31:29;;;;;;;27.55;4.50;;;16.70;99.90;;;;;;5088090;28;20437;-71
2021/10/27 00:33:55;;;;;;;24.47;4.27;;;16.70;99.90;;;;;;5088394;28;20484;-71
2021/10/27 00:36:20;;;;;;;22.83;3.92;;;16.70;99.90;;;;;;5069642;28;20437;-71
2021/10/27 00:38:46;;;;;;;23.30;3.97;;;16.70;99.90;;;;;;5104164;28;20413;-72
2021/10/27 00:41:12;;;;;;;24.27;4.20;;;16.70;99.90;;;;;;5085279;28;20774;-71
2021/10/27 00:43:38;;;;;;;28.23;4.88;;;16.70;99.90;;;;;;5088325;28;20413;-71
2021/10/27 00:46:04;;;;;;;24.83;4.65;;;16.70;99.90;;;;;;5091290;28;20402;-71
2021/10/27 00:48:30;;;;;;;30.33;4.27;;;16.70;99.90;;;;;;5088011;28;20461;-72
2021/10/27 00:50:56;;;;;;;27.13;4.53;;;16.70;99.90;;;;;;5086651;28;20921;-72
2021/10/27 00:53:23;;;;;;;30.30;4.70;;;16.70;99.90;;;;;;5088436;28;20804;-71
2021/10/27 00:55:50;;;;;;;33.63;4.75;;;16.60;99.90;;;;;;5086895;28;20415;-72
2021/10/27 00:58:16;;;;;;;31.70;4.80;;;16.60;99.90;;;;;;5088198;28;20481;-71
2021/10/27 01:00:42;;;;;;;32.80;5.20;;;16.50;99.90;;;;;;5086709;28;20402;-71
2021/10/27 01:03:08;;;;;;;36.42;5.40;;;16.50;99.90;;;;;;5087795;28;20397;-71
2021/10/27 01:05:34;;;;;;;33.37;5.20;;;16.40;99.90;;;;;;5085641;28;20515;-71
2021/10/27 01:08:00;;;;;;;31.13;5.05;;;16.40;99.90;;;;;;5086598;28;20420;-71
2021/10/27 01:10:26;;;;;;;35.63;5.07;;;16.40;99.90;;;;;;5086326;28;20420;-71
2021/10/27 01:12:51;;;;;;;29.27;4.80;;;16.40;99.90;;;;;;5088337;28;20413;-71
2021/10/27 01:15:18;;;;;;;35.55;5.38;;;16.40;99.90;;;;;;5069123;28;20456;-71
2021/10/27 01:17:44;;;;;;;30.85;5.05;;;16.50;99.90;;;;;;5087806;28;20405;-71
2021/10/27 01:20:10;;;;;;;30.02;4.38;;;16.50;99.90;;;;;;5088291;28;20421;-70
2021/10/27 01:22:38;;;;;;;31.13;4.33;;;16.50;99.90;;;;;;5086608;28;22051;-71
2021/10/27 01:25:08;;;;;;;29.02;4.82;;;16.50;99.90;;;;;;5084360;28;20441;-71
2021/10/27 01:27:42;;;;;;;22.77;4.43;;;16.50;99.90;;;;;;5087870;28;20408;-71
2021/10/27 01:30:25;;;;;;;24.67;4.75;;;16.50;99.90;;;;;;5086614;28;20413;-71
2021/10/27 01:32:51;;;;;;;29.65;5.00;;;16.60;99.90;;;;;;5069770;28;20886;-71
2021/10/27 01:35:18;;;;;;;27.77;4.93;;;16.60;99.90;;;;;;5068880;28;20417;-71
2021/10/27 01:37:45;;;;;;;26.00;4.43;;;16.60;99.90;;;;;;5068159;28;20934;-70
2021/10/27 01:40:14;;;;;;;34.57;4.93;;;16.60;99.90;;;;;;5068880;28;20979;-71
2021/10/27 01:42:40;;;;;;;26.80;4.13;;;16.60;99.90;;;;;;5087535;28;20516;-71
2021/10/27 01:45:08;;;;;;;25.17;4.57;;;16.60;99.90;;;;;;5085692;28;20471;-71
2021/10/27 01:47:33;;;;;;;27.70;4.53;;;16.60;99.90;;;;;;5086902;28;20927;-71
2021/10/27 01:50:00;;;;;;;30.50;5.18;;;16.60;99.90;;;;;;5085279;28;20492;-71
2021/10/27 01:52:26;;;;;;;30.92;4.63;;;16.60;99.90;;;;;;5087697;28;20921;-71
2021/10/27 01:54:51;;;;;;;32.53;5.00;;;16.60;99.90;;;;;;5085578;28;20507;-72
2021/10/27 01:57:17;;;;;;;24.98;4.93;;;16.60;99.90;;;;;;5087772;28;20516;-71
2021/10/27 01:59:43;;;;;;;28.52;4.70;;;16.60;99.90;;;;;;5085642;28;20416;-72
2021/10/27 02:02:11;;;;;;;31.58;4.78;;;16.60;99.90;;;;;;5086373;28;20495;-71
2021/10/27 02:04:37;;;;;;;35.33;5.60;;;16.60;99.90;;;;;;5067155;28;20437;-71
2021/10/27 02:07:02;;;;;;;33.20;5.43;;;16.60;99.90;;;;;;5085258;28;20893;-71
2021/10/27 02:09:29;;;;;;;30.33;4.60;;;16.60;99.90;;;;;;5084881;28;20390;-71
2021/10/27 02:11:55;;;;;;;25.43;4.37;;;16.60;99.90;;;;;;5087353;28;20418;-71
2021/10/27 02:14:21;;;;;;;31.13;4.70;;;16.60;99.90;;;;;;5086231;28;20389;-71
2021/10/27 02:16:48;;;;;;;33.35;4.68;;;16.60;99.90;;;;;;5087384;28;20432;-71
2021/10/27 02:19:13;;;;;;;26.80;4.80;;;16.60;99.90;;;;;;5086787;28;20942;-71
2021/10/27 02:21:39;;;;;;;26.40;4.70;;;16.60;99.90;;;;;;5086688;28;20503;-71
2021/10/27 02:24:05;;;;;;;38.00;5.10;;;16.50;99.90;;;;;;5085147;28;20405;-71
2021/10/27 02:26:30;;;;;;;30.08;5.05;;;16.50;99.90;;;;;;5084702;28;20880;-70
2021/10/27 02:28:57;;;;;;;32.20;5.13;;;16.50;99.90;;;;;;5086994;28;20413;-71
2021/10/27 02:31:22;;;;;;;30.63;4.57;;;16.60;99.90;;;;;;5086335;28;20410;-71
2021/10/27 02:33:48;;;;;;;30.33;4.83;;;16.50;99.90;;;;;;5087179;28;20496;-71
2021/10/27 02:36:14;;;;;;;28.73;4.67;;;16.50;99.90;;;;;;5088389;28;20485;-71
2021/10/27 02:38:42;;;;;;;30.35;5.32;;;16.60;99.90;;;;;;5090443;28;20409;-71
2021/10/27 02:41:08;;;;;;;33.87;4.87;;;16.60;99.90;;;;;;5087267;28;20906;-71
2021/10/27 02:43:35;;;;;;;32.13;4.80;;;16.50;99.90;;;;;;5088981;28;20409;-71
2021/10/27 02:46:02;;;;;;;37.17;5.13;;;16.50;99.90;;;;;;5088777;28;20397;-70
2021/10/27 02:48:28;;;;;;;30.10;4.93;;;16.50;99.90;;;;;;5089265;28;20413;-71
2021/10/27 02:50:53;;;;;;;34.50;5.30;;;16.50;99.90;;;;;;5087389;28;20429;-71
2021/10/27 02:53:19;;;;;;;28.10;4.80;;;16.50;99.90;;;;;;5089827;28;20414;-71
2021/10/27 02:55:45;;;;;;;31.73;4.68;;;16.50;99.90;;;;;;5088451;28;20883;-71
2021/10/27 02:58:10;;;;;;;31.48;4.32;;;16.50;99.90;;;;;;5089874;28;20393;-71
2021/10/27 03:00:36;;;;;;;26.47;4.10;;;16.50;99.90;;;;;;5087541;28;20418;-71
2021/10/27 03:03:02;;;;;;;25.77;3.92;;;16.50;99.90;;;;;;5088942;28;20436;-71
2021/10/27 03:05:29;;;;;;;27.83;4.05;;;16.50;99.90;;;;;;5088215;28;20462;-71
2021/10/27 03:07:55;;;;;;;28.08;4.03;;;16.50;99.90;;;;;;5071161;28;20394;-71
2021/10/27 03:10:20;;;;;;;27.65;4.28;;;16.50;99.90;;;;;;5087667;28;20429;-71
2021/10/27 03:12:46;;;;;;;25.00;3.70;;;16.50;99.90;;;;;;5088064;28;21910;-72
2021/10/27 03:15:12;;;;;;;26.83;4.20;;;16.50;99.90;;;;;;5088318;28;20414;-71
2021/10/27 03:17:38;;;;;;;23.50;4.30;;;16.50;99.90;;;;;;5088602;28;20406;-71
2021/10/27 03:20:04;;;;;;;27.88;4.38;;;16.60;99.90;;;;;;5088340;28;20437;-71
2021/10/27 03:22:30;;;;;;;25.38;4.18;;;16.60;99.90;;;;;;5089770;28;20430;-71
2021/10/27 03:24:55;;;;;;;27.65;3.95;;;16.60;99.90;;;;;;5085274;28;20516;-70
2021/10/27 03:27:21;;;;;;;22.87;4.30;;;16.60;99.90;;;;;;5089163;28;20775;-71
2021/10/27 03:29:47;;;;;;;28.20;4.80;;;16.60;99.90;;;;;;5069012;28;20404;-71
2021/10/27 03:32:13;;;;;;;25.60;4.65;;;16.60;99.90;;;;;;5088548;28;20744;-71
2021/10/27 03:34:39;;;;;;;31.95;4.82;;;16.60;99.90;;;;;;5087751;28;20424;-71
2021/10/27 03:37:06;;;;;;;30.10;4.88;;;16.60;99.90;;;;;;5088554;28;20454;-71
2021/10/27 03:39:32;;;;;;;30.20;4.50;;;16.60;99.90;;;;;;5087653;28;20801;-71
2021/10/27 03:41:57;;;;;;;29.80;5.03;;;16.60;99.90;;;;;;5104186;28;20418;-70
2021/10/27 03:44:24;;;;;;;27.67;4.68;;;16.50;99.90;;;;;;5086347;28;20402;-70
2021/10/27 03:46:51;;;;;;;27.98;4.88;;;16.50;99.90;;;;;;5087861;28;20405;-70
2021/10/27 03:49:17;;;;;;;26.20;4.60;;;16.50;99.90;;;;;;5088616;28;20448;-70
2021/10/27 03:51:43;;;;;;;24.23;4.60;;;16.50;99.90;;;;;;5085703;28;20979;-70
2021/10/27 03:54:08;;;;;;;30.02;5.15;;;16.50;99.90;;;;;;5070134;28;20421;-70
2021/10/27 03:56:34;;;;;;;28.95;5.50;;;16.50;99.90;;;;;;5086091;28;20418;-70
2021/10/27 03:59:00;;;;;;;27.10;4.80;;;16.60;99.90;;;;;;5108408;27;20551;-70
2021/10/27 04:01:25;;;;;;;33.27;5.67;;;16.50;99.90;;;;;;5102625;28;20437;-70
2021/10/27 04:03:51;;;;;;;33.55;5.00;;;16.50;99.90;;;;;;5069778;28;20413;-70
2021/10/27 04:06:17;;;;;;;27.43;4.87;;;16.60;99.90;;;;;;5086086;28;20417;-71
2021/10/27 04:08:42;;;;;;;24.87;5.00;;;16.60;99.90;;;;;;5088509;28;20537;-70
2021/10/27 04:11:08;;;;;;;30.60;6.03;;;16.60;99.90;;;;;;5067480;28;20463;-70
2021/10/27 04:13:35;;;;;;;27.20;5.90;;;16.50;99.90;;;;;;5088504;28;20430;-70
2021/10/27 04:16:01;;;;;;;22.97;5.30;;;16.50;99.90;;;;;;5085699;28;20422;-69
2021/10/27 04:18:26;;;;;;;24.67;5.78;;;16.50;99.90;;;;;;5087758;28;20869;-70
2021/10/27 04:20:52;;;;;;;27.53;5.90;;;16.50;99.90;;;;;;5086101;28;20497;-70
2021/10/27 04:23:17;;;;;;;25.83;6.00;;;16.50;99.90;;;;;;5085740;28;20418;-70
2021/10/27 04:25:43;;;;;;;30.50;7.10;;;16.50;99.90;;;;;;5088118;28;20492;-70
2021/10/27 04:28:09;;;;;;;25.95;6.10;;;16.50;99.90;;;;;;5068807;28;20421;-70
2021/10/27 04:30:34;;;;;;;27.87;7.07;;;16.50;99.90;;;;;;5085730;28;20401;-70
2021/10/27 04:33:00;;;;;;;31.33;7.10;;;16.50;99.90;;;;;;5086912;28;20410;-70
2021/10/27 04:35:26;;;;;;;28.27;7.90;;;16.50;99.90;;;;;;5079161;28;20968;-70
2021/10/27 04:37:52;;;;;;;26.40;7.33;;;16.50;99.90;;;;;;5086207;28;20433;-71
2021/10/27 04:40:19;;;;;;;28.38;7.45;;;16.50;99.90;;;;;;5068824;28;20508;-71
2021/10/27 04:42:46;;;;;;;28.35;7.60;;;16.50;99.90;;;;;;5087354;28;20445;-71
2021/10/27 04:45:12;;;;;;;25.30;7.07;;;16.50;99.90;;;;;;5087188;28;20418;-70
2021/10/27 04:47:39;;;;;;;26.35;6.80;;;16.50;99.90;;;;;;5087318;28;20991;-71
2021/10/27 04:50:06;;;;;;;28.88;7.28;;;16.50;99.90;;;;;;5083482;28;20409;-72
2021/10/27 04:52:32;;;;;;;28.60;6.97;;;16.50;99.90;;;;;;5069434;28;20947;-71
2021/10/27 04:54:58;;;;;;;22.73;6.73;;;16.50;99.90;;;;;;5085531;28;20420;-72
2021/10/27 04:57:23;;;;;;;25.27;6.43;;;16.50;99.90;;;;;;5086908;28;20422;-71
2021/10/27 04:59:49;;;;;;;25.13;7.07;;;16.50;99.90;;;;;;5085334;28;20417;-71
2021/10/27 05:02:16;;;;;;;29.70;6.47;;;16.50;99.90;;;;;;5092947;28;20409;-72
2021/10/27 05:04:43;;;;;;;25.38;6.20;;;16.50;99.90;;;;;;5085869;28;21035;-72
2021/10/27 05:07:11;;;;;;;29.67;6.60;;;16.50;99.90;;;;;;5087225;28;20484;-71
2021/10/27 05:09:37;;;;;;;20.83;5.70;;;16.50;99.90;;;;;;5086239;28;20405;-71
2021/10/27 05:12:04;;;;;;;24.42;6.13;;;16.50;99.90;;;;;;5087133;28;20777;-71
2021/10/27 05:14:30;;;;;;;30.67;6.13;;;16.50;99.90;;;;;;5086180;28;20417;-70
2021/10/27 05:16:56;;;;;;;28.95;6.28;;;16.50;99.90;;;;;;5085879;28;20417;-71
2021/10/27 05:19:22;;;;;;;23.97;5.90;;;16.50;99.90;;;;;;5089379;28;20412;-72
2021/10/27 05:21:47;;;;;;;21.73;5.63;;;16.50;99.90;;;;;;5088115;28;20406;-70
2021/10/27 05:24:13;;;;;;;23.42;5.80;;;16.50;99.90;;;;;;5086398;28;20756;-73
2021/10/27 05:26:39;;;;;;;27.98;6.10;;;16.50;99.90;;;;;;5085775;28;20421;-71
2021/10/27 05:29:05;;;;;;;28.67;6.05;;;16.50;99.90;;;;;;5096225;28;20564;-73
2021/10/27 05:31:30;;;;;;;26.60;6.10;;;16.50;99.90;;;;;;5084381;28;20519;-71
2021/10/27 05:33:56;;;;;;;22.57;5.73;;;16.50;99.90;;;;;;5087293;28;20409;-71
2021/10/27 05:36:21;;;;;;;23.13;5.40;;;16.60;99.90;;;;;;5085058;28;20466;-71
2021/10/27 05:38:47;;;;;;;24.17;5.88;;;16.50;99.90;;;;;;5086258;28;20417;-71
2021/10/27 05:41:13;;;;;;;22.90;5.63;;;16.50;99.90;;;;;;5086041;28;20482;-71
2021/10/27 05:43:38;;;;;;;23.97;5.70;;;16.50;99.90;;;;;;5085111;28;20413;-71
2021/10/27 05:46:04;;;;;;;26.40;5.53;;;16.50;99.90;;;;;;5085112;28;20898;-71
2021/10/27 05:48:35;;;;;;;22.38;5.38;;;16.50;99.90;;;;;;5068536;28;20405;-71
2021/10/27 05:56:20;;;;;;;21.27;5.32;;;16.50;99.90;;;;;;5083861;28;20414;-70
2021/10/27 05:58:47;;;;;;;23.13;5.40;;;16.50;99.90;;;;;;5085514;28;20410;-70
2021/10/27 06:01:14;;;;;;;22.75;5.32;;;16.60;99.90;;;;;;5084133;28;20415;-70
2021/10/27 06:03:40;;;;;;;23.50;5.70;;;16.60;99.90;;;;;;5067510;28;20509;-71
2021/10/27 06:06:05;;;;;;;19.30;4.90;;;16.60;99.90;;;;;;5082032;28;20568;-71
2021/10/27 06:08:31;;;;;;;23.60;5.30;;;16.60;99.90;;;;;;5101887;28;20418;-70
2021/10/27 06:11:05;;;;;;;22.33;4.80;;;16.60;99.90;;;;;;5070596;28;20416;-70
2021/10/27 06:13:34;;;;;;;19.27;4.60;;;16.60;99.90;;;;;;5060205;28;20421;-70
2021/10/27 06:15:59;;;;;;;21.43;4.70;;;16.60;99.90;;;;;;5061227;28;20424;-70
2021/10/27 06:18:27;;;;;;;18.50;4.78;;;16.60;99.90;;;;;;5053664;28;20423;-70
2021/10/27 06:20:53;;;;;;;17.00;4.40;;;16.60;99.90;;;;;;5052107;28;20417;-69
2021/10/27 06:23:19;;;;;;;17.77;4.30;;;16.60;99.90;;;;;;5060865;28;21248;-72
2021/10/27 06:25:45;;;;;;;21.67;4.68;;;16.60;99.90;;;;;;5053058;28;20397;-70
2021/10/27 06:28:15;;;;;;;16.15;4.65;;;16.60;99.90;;;;;;5060106;28;20405;-71
2021/10/27 06:30:57;;;;;;;18.17;4.20;;;16.60;99.90;;;;;;5058435;28;20409;-71
2021/10/27 06:36:28;;;;;;;16.10;4.35;;;16.60;99.90;;;;;;5060401;28;20426;-70
2021/10/27 06:46:56;;;;;;;17.45;4.57;;;16.60;99.90;;;;;;5063681;28;20880;-71
2021/10/27 06:49:21;;;;;;;17.73;4.10;;;16.60;99.90;;;;;;5066883;28;20413;-70
2021/10/27 06:51:47;;;;;;;15.52;4.50;;;16.60;99.90;;;;;;5055700;28;20413;-70
2021/10/27 06:54:13;;;;;;;19.63;4.45;;;16.50;99.90;;;;;;5061749;28;21275;-70
2021/10/27 06:56:39;;;;;;;16.27;4.30;;;16.50;99.90;;;;;;5061531;28;20447;-70
2021/10/27 07:02:04;;;;;;;20.17;4.20;;;16.50;99.90;;;;;;5050174;28;20768;-70
2021/10/27 07:15:28;;;;;;;17.47;3.90;;;16.50;99.90;;;;;;5074114;28;20425;-70
2021/10/27 07:17:55;;;;;;;18.90;4.10;;;16.60;99.90;;;;;;5094621;28;20429;-71
2021/10/27 07:20:25;;;;;;;15.52;4.18;;;16.60;99.90;;;;;;5085954;28;20475;-70
2021/10/27 07:22:57;;;;;;;13.85;4.07;;;16.60;99.90;;;;;;5091407;28;20419;-70
2021/10/27 07:25:22;;;;;;;17.40;4.15;;;16.60;99.90;;;;;;5080525;28;20414;-70
2021/10/27 07:27:51;;;;;;;13.83;4.03;;;16.60;99.90;;;;;;5087095;28;20466;-70
2021/10/27 07:30:17;;;;;;;15.13;4.10;;;16.70;99.90;;;;;;5069222;28;20962;-71
2021/10/27 07:32:43;;;;;;;20.70;4.60;;;16.70;99.90;;;;;;5077024;28;20415;-70
2021/10/27 07:40:43;;;;;;;16.38;4.55;;;16.70;99.90;;;;;;5086312;28;20414;-71
2021/10/27 07:43:13;;;;;;;20.90;4.85;;;16.70;99.90;;;;;;5069954;28;20499;-72
2021/10/27 07:45:39;;;;;;;20.17;5.50;;;16.70;99.90;;;;;;5085862;28;21160;-71
2021/10/27 07:48:06;;;;;;;18.25;5.70;;;16.80;99.90;;;;;;5067835;28;20417;-71
2021/10/27 07:50:33;;;;;;;16.93;5.63;;;16.80;99.90;;;;;;5084692;28;20409;-71
2021/10/27 07:53:01;;;;;;;19.05;5.65;;;16.80;99.90;;;;;;5093826;28;20963;-71
2021/10/27 07:55:28;;;;;;;15.60;4.90;;;16.80;99.90;;;;;;5087546;28;20422;-71
2021/10/27 07:57:55;;;;;;;15.98;5.07;;;16.80;99.90;;;;;;5093594;28;20446;-71
2021/10/27 08:00:22;;;;;;;19.95;5.28;;;16.80;99.90;;;;;;5086978;28;20762;-71
2021/10/27 08:02:49;;;;;;;22.00;5.60;;;16.80;99.90;;;;;;5087043;28;20421;-71
2021/10/27 08:05:16;;;;;;;16.47;5.20;;;16.90;99.90;;;;;;5086116;28;20781;-70
2021/10/27 08:07:51;;;;;;;14.40;4.93;;;16.90;99.90;;;;;;5086592;28;20406;-71
2021/10/27 08:10:18;;;;;;;17.60;5.45;;;16.90;99.90;;;;;;5085973;28;20414;-72
2021/10/27 08:12:46;;;;;;;20.00;5.10;;;16.90;99.90;;;;;;5087476;28;20429;-71
2021/10/27 08:15:13;;;;;;;17.40;5.03;;;16.90;99.90;;;;;;5083999;28;20408;-71
2021/10/27 08:17:40;;;;;;;14.27;5.03;;;16.90;99.90;;;;;;5085822;28;20456;-71
2021/10/27 08:20:08;;;;;;;15.30;5.33;;;16.90;99.90;;;;;;5072733;28;20429;-71
2021/10/27 08:22:34;;;;;;;14.10;5.35;;;16.90;99.90;;;;;;5087859;28;20889;-71
2021/10/27 08:25:04;;;;;;;20.17;5.45;;;16.90;99.90;;;;;;5085298;28;20403;-69
2021/10/27 08:27:33;;;;;;;14.95;5.07;;;16.90;99.90;;;;;;5086886;28;20413;-71
2021/10/27 08:30:04;;;;;;;14.57;5.30;;;16.90;99.90;;;;;;5070144;28;20429;-71
2021/10/27 08:32:40;;;;;;;15.02;4.72;;;16.90;99.90;;;;;;5087091;28;20462;-71
2021/10/27 08:35:08;;;;;;;15.35;4.97;;;16.90;99.90;;;;;;5086511;28;20420;-71
2021/10/27 08:37:38;;;;;;;14.73;4.90;;;16.90;99.90;;;;;;5068337;28;20398;-71
2021/10/27 08:40:05;;;;;;;16.57;4.60;;;17.00;99.90;;;;;;5084427;28;20490;-71
2021/10/27 08:42:31;;;;;;;15.50;4.60;;;17.00;99.90;;;;;;5088381;28;20762;-71
2021/10/27 08:44:57;;;;;;;16.10;4.40;;;17.10;99.90;;;;;;5085733;28;20410;-71
2021/10/27 08:47:24;;;;;;;12.88;4.80;;;17.10;99.90;;;;;;5086330;28;20471;-71
2021/10/27 08:49:53;;;;;;;14.90;3.88;;;17.10;99.90;;;;;;5084171;28;20465;-71
2021/10/27 08:52:18;;;;;;;10.27;3.30;;;17.10;99.90;;;;;;5087727;28;20417;-71
2021/10/27 08:54:44;;;;;;;9.65;3.38;;;17.10;99.90;;;;;;5085714;28;20404;-72
2021/10/27 08:57:10;;;;;;;11.40;3.60;;;17.00;99.90;;;;;;5087888;28;20414;-71
2021/10/27 09:07:50;;;;;;;12.32;3.30;;;17.00;99.90;;;;;;5085260;28;20890;-71
2021/10/27 09:42:08;;;;;;;11.70;3.17;;;17.10;99.90;;;;;;5084684;28;20402;-70
2021/10/27 10:06:24;;;;;;;15.23;3.42;;;17.30;99.90;;;;;;5084218;28;20467;-70
2021/10/27 10:08:50;;;;;;;11.83;3.00;;;17.20;99.90;;;;;;5084408;28;20418;-71
2021/10/27 10:11:20;;;;;;;10.18;3.10;;;17.20;99.90;;;;;;5067172;28;20414;-71
2021/10/27 10:13:47;;;;;;;9.85;3.00;;;17.20;99.90;;;;;;5069595;28;20414;-70
2021/10/27 10:16:15;;;;;;;10.85;3.00;;;17.20;99.90;;;;;;5067851;28;20457;-71
2021/10/27 10:18:43;;;;;;;11.63;3.33;;;17.20;99.90;;;;;;5092049;28;20502;-70
2021/10/27 10:21:10;;;;;;;14.27;3.22;;;17.30;99.90;;;;;;5086007;28;20952;-71
2021/10/27 10:23:36;;;;;;;12.25;3.10;;;17.30;99.90;;;;;;5084680;28;20410;-73
2021/10/27 10:26:09;;;;;;;10.90;2.97;;;17.30;99.90;;;;;;5079805;28;21031;-72
2021/10/27 10:28:43;;;;;;;10.68;3.03;;;17.30;99.90;;;;;;5077383;28;20410;-72
2021/10/27 10:31:10;;;;;;;13.00;3.20;;;17.30;99.90;;;;;;5076116;28;20423;-72
2021/10/27 10:33:41;;;;;;;10.43;3.05;;;17.30;99.80;;;;;;5081085;28;20493;-70
2021/10/27 10:36:26;;;;;;;11.80;2.90;;;17.30;99.70;;;;;;5079701;28;20736;-71
2021/10/27 10:41:56;;;;;;;12.60;2.90;;;17.30;99.40;;;;;;5078103;28;20417;-70
2021/10/27 10:56:39;;;;;;;12.43;3.67;;;17.30;99.30;;;;;;5095235;28;20414;-71
2021/10/27 11:24:40;;;;;;;7.85;3.35;;;17.40;99.20;;;;;;5066375;28;20762;-70
2021/10/27 11:38:15;;;;;;;11.95;3.75;;;17.40;99.30;;;;;;5068028;28;20988;-72
2021/10/27 11:40:45;;;;;;;10.88;3.40;;;17.40;99.20;;;;;;5081157;28;20416;-72
2021/10/27 11:46:09;;;;;;;12.95;3.55;;;17.40;99.10;;;;;;5080031;28;20406;-72
2021/10/27 11:51:09;;;;;;;11.07;3.60;;;17.50;98.80;;;;;;5078028;28;20412;-72
2021/10/27 11:53:35;;;;;;;10.40;3.80;;;17.50;98.80;;;;;;5079432;28;20404;-74
2021/10/27 11:56:17;;;;;;;13.07;3.60;;;17.50;98.80;;;;;;5097428;27;20411;-74
2021/10/27 11:58:45;;;;;;;11.35;3.83;;;17.60;98.70;;;;;;5087316;28;20414;-72
2021/10/27 12:01:36;;;;;;;12.18;4.03;;;17.60;98.60;;;;;;5085796;28;20433;-72
2021/10/27 12:04:09;;;;;;;10.23;3.63;;;17.70;98.50;;;;;;5086107;28;20426;-72
2021/10/27 12:06:39;;;;;;;11.27;3.78;;;17.70;98.40;;;;;;5086024;28;20414;-72
2021/10/27 12:17:34;;;;;;;12.10;4.88;;;17.60;98.50;;;;;;5088385;28;20419;-72
2021/10/27 12:19:59;;;;;;;12.02;4.80;;;17.60;98.40;;;;;;5081912;28;20417;-75
2021/10/27 12:22:26;;;;;;;13.47;5.07;;;17.60;98.40;;;;;;5070285;28;20782;-72
2021/10/27 12:24:57;;;;;;;13.27;4.63;;;17.60;98.30;;;;;;5070895;28;20484;-72
2021/10/27 12:27:37;;;;;;;12.85;4.72;;;17.60;98.30;;;;;;5087948;28;20410;-71
2021/10/27 12:30:08;;;;;;;12.23;4.70;;;17.50;98.30;;;;;;5089831;28;20429;-71
2021/10/27 12:32:47;;;;;;;13.15;5.30;;;17.50;98.50;;;;;;5095951;28;20422;-71
2021/10/27 12:35:13;;;;;;;10.65;5.40;;;17.50;98.50;;;;;;5088406;28;20424;-72
2021/10/27 12:37:54;;;;;;;13.50;5.32;;;17.50;98.50;;;;;;5092049;28;20415;-71
2021/10/27 12:40:27;;;;;;;13.02;5.50;;;17.50;98.40;;;;;;5091537;28;20531;-71
2021/10/27 12:43:01;;;;;;;10.90;5.57;;;17.50;98.40;;;;;;5086354;28;20402;-72
2021/10/27 12:45:48;;;;;;;13.10;6.25;;;17.50;98.30;;;;;;5086913;28;20886;-72
2021/10/27 12:48:20;;;;;;;13.32;6.13;;;17.60;98.30;;;;;;5083288;28;20481;-73
2021/10/27 12:50:57;;;;;;;16.63;6.60;;;17.60;98.20;;;;;;5080472;28;20409;-72
2021/10/27 12:53:36;;;;;;;13.13;6.43;;;17.60;98.20;;;;;;5086726;28;20410;-71
2021/10/27 12:56:14;;;;;;;10.98;6.10;;;17.60;98.10;;;;;;5100472;27;20462;-71
2021/10/27 12:58:46;;;;;;;12.40;6.40;;;17.60;98.00;;;;;;5086312;28;20413;-70
2021/10/27 13:01:34;;;;;;;14.73;6.53;;;17.60;98.00;;;;;;5086384;28;20417;-72
2021/10/27 13:06:45;;;;;;;13.40;6.60;;;17.70;97.70;;;;;;5089020;28;20439;-71
2021/10/27 13:12:17;;;;;;;14.15;7.07;;;17.60;98.00;;;;;;5086665;28;20449;-71
2021/10/27 13:15:05;;;;;;;11.87;6.63;;;17.60;97.80;;;;;;5083989;28;20460;-71
2021/10/27 13:31:13;;;;;;;13.38;7.50;;;17.60;97.90;;;;;;5084455;28;20453;-73
2021/10/27 13:33:39;;;;;;;16.67;8.15;;;17.60;97.70;;;;;;5087483;28;20398;-72
2021/10/27 13:36:05;;;;;;;14.95;7.70;;;17.60;97.80;;;;;;5084879;28;20423;-72
2021/10/27 13:38:36;;;;;;;12.82;7.28;;;17.70;97.60;;;;;;5068369;28;20406;-72
2021/10/27 13:41:04;;;;;;;13.38;7.35;;;17.70;97.30;;;;;;5082960;28;20778;-72
2021/10/27 13:43:47;;;;;;;12.57;7.20;;;17.80;97.20;;;;;;5085631;28;20409;-73
2021/10/27 13:47:02;;;;;;;12.52;7.10;;;17.80;97.00;;;;;;5083941;28;20470;-71
2021/10/27 14:08:23;;;;;;;13.65;5.72;;;17.70;96.30;;;;;;5082095;28;20409;-72
2021/10/27 14:11:15;;;;;;;11.05;5.30;;;17.70;96.10;;;;;;5066181;28;20461;-72
2021/10/27 14:40:46;;;;;;;11.80;4.40;;;17.80;94.30;;;;;;5088910;28;20515;-70
2021/10/27 15:21:42;;;;;;;11.25;5.03;;;17.20;95.70;;;;;;5069484;28;20394;-72
2021/10/27 15:24:35;;;;;;;12.45;4.90;;;17.20;95.80;;;;;;5101857;28;20425;-71
2021/10/27 15:30:08;;;;;;;13.15;5.50;;;17.20;95.90;;;;;;5095730;28;20496;-70
2021/10/27 15:44:01;;;;;;;13.77;6.10;;;17.00;96.20;;;;;;5081793;28;20406;-71
2021/10/27 15:51:58;;;;;;;10.80;5.90;;;16.90;96.30;;;;;;5085665;28;20410;-70
2021/10/27 15:54:24;;;;;;;13.38;6.32;;;16.90;96.30;;;;;;5067451;28;20926;-69
2021/10/27 15:56:50;;;;;;;12.30;6.72;;;16.90;96.60;;;;;;5084434;28;20423;-70
2021/10/27 15:59:17;;;;;;;12.98;6.90;;;16.80;96.50;;;;;;5068804;28;20759;-69
2021/10/27 16:01:44;;;;;;;11.38;6.53;;;16.80;96.60;;;;;;5067784;28;20461;-73
2021/10/27 16:04:10;;;;;;;14.43;6.80;;;16.80;96.70;;;;;;5084762;28;20418;-68
2021/10/27 16:09:36;;;;;;;14.80;6.70;;;16.70;96.60;;;;;;5052973;28;20501;-72
2021/10/27 16:12:01;;;;;;;12.40;6.70;;;16.70;96.60;;;;;;5086315;28;20500;-71
2021/10/27 16:14:28;;;;;;;16.50;7.40;;;16.70;96.80;;;;;;5085756;28;20512;-70
2021/10/27 16:16:54;;;;;;;16.52;7.88;;;16.60;97.00;;;;;;5086389;28;20413;-69
2021/10/27 16:19:20;;;;;;;16.23;8.67;;;16.60;97.20;;;;;;5087405;28;20420;-70
2021/10/27 16:21:45;;;;;;;15.90;8.98;;;16.50;97.30;;;;;;5082947;28;20406;-71
2021/10/27 16:24:11;;;;;;;13.73;8.75;;;16.50;97.50;;;;;;5073000;28;21175;-71
2021/10/27 16:26:37;;;;;;;16.33;9.33;;;16.50;97.70;;;;;;5086627;28;20904;-70
2021/10/27 16:29:03;;;;;;;13.55;9.07;;;16.50;97.70;;;;;;5084947;28;20421;-72
2021/10/27 16:31:29;;;;;;;13.60;9.13;;;16.50;97.80;;;;;;5082833;28;20419;-71
2021/10/27 16:33:55;;;;;;;17.98;9.27;;;16.50;97.90;;;;;;5084524;28;20417;-70
2021/10/27 16:36:22;;;;;;;14.32;9.15;;;16.40;98.00;;;;;;5065883;28;20410;-72
2021/10/27 16:38:48;;;;;;;15.87;9.07;;;16.50;98.20;;;;;;5102733;28;20413;-70
2021/10/27 16:41:14;;;;;;;15.20;9.05;;;16.60;98.20;;;;;;5100000;27;20420;-73
2021/10/27 16:43:42;;;;;;;14.98;9.18;;;16.60;98.00;;;;;;5085633;28;20562;-70
2021/10/27 16:46:08;;;;;;;14.18;9.27;;;16.60;97.50;;;;;;5082993;28;20402;-72
2021/10/27 16:48:34;;;;;;;14.65;9.85;;;16.60;97.50;;;;;;5067573;28;20405;-70
2021/10/27 16:51:00;;;;;;;12.70;9.55;;;16.50;97.60;;;;;;5085699;28;20429;-72
2021/10/27 16:53:26;;;;;;;15.47;9.70;;;16.40;97.60;;;;;;5081811;28;20453;-69
2021/10/27 16:55:52;;;;;;;15.82;9.75;;;16.40;97.80;;;;;;5083224;28;20405;-69
2021/10/27 16:58:18;;;;;;;16.25;10.00;;;16.30;97.90;;;;;;5091787;28;20904;-71
2021/10/27 17:00:45;;;;;;;14.73;9.87;;;16.20;98.10;;;;;;5065602;28;20422;-70
2021/10/27 17:03:11;;;;;;;14.85;10.13;;;16.20;98.10;;;;;;5085478;28;20412;-71
2021/10/27 17:05:37;;;;;;;15.90;10.75;;;16.20;98.20;;;;;;5083825;28;20410;-71
2021/10/27 17:08:04;;;;;;;14.83;10.77;;;16.20;98.30;;;;;;5085037;28;20441;-70
2021/10/27 17:10:29;;;;;;;16.35;10.85;;;16.20;98.30;;;;;;5067008;28;21159;-69
2021/10/27 17:12:57;;;;;;;17.00;10.25;;;16.10;98.40;;;;;;5084306;28;20524;-71
2021/10/27 17:15:22;;;;;;;16.75;10.98;;;16.10;98.40;;;;;;5084213;28;20443;-69
2021/10/27 17:17:48;;;;;;;16.35;10.35;;;16.20;98.40;;;;;;5067710;28;20929;-71
2021/10/27 17:20:17;;;;;;;20.47;10.87;;;16.10;98.40;;;;;;5085161;28;20927;-71
2021/10/27 17:22:45;;;;;;;16.48;10.50;;;16.10;98.40;;;;;;5087832;28;20382;-71
2021/10/27 17:25:13;;;;;;;18.17;12.18;;;16.10;98.50;;;;;;5065640;28;20405;-69
2021/10/27 17:27:40;;;;;;;18.27;11.73;;;16.10;98.70;;;;;;5082156;28;20460;-69
2021/10/27 17:30:14;;;;;;;16.60;11.60;;;16.10;98.90;;;;;;5083207;28;20500;-71